Time;durP1;ratioP1;P1;durP2;ratioP2;P2;SDS_P1;SDS_P2;PMS_P1;PMS_P2;Temp;Humidity;BMP_temperature;BMP_pressure;BME280_temperature;BME280_humidity;BME280_pressure;Samples;Min_cycle;Max_cycle;Signal;HPM_P1;HPM_P2
2023/03/25 00:14:32;;;;;;;29.10;12.00;;;;;;;12.34;90.48;99056.09;680359;1264;139881;-73
2023/03/25 00:29:35;;;;;;;16.10;10.00;;;;;;;12.16;91.40;99056.86;678070;1261;140649;-74
2023/03/25 00:44:39;;;;;;;17.20;9.20;;;;;;;11.96;91.94;99063.59;674848;1263;139838;-74
2023/03/25 00:59:42;;;;;;;16.10;9.30;;;;;;;11.82;91.69;99053.28;671419;1263;139678;-74
2023/03/25 01:14:45;;;;;;;19.20;9.10;;;;;;;11.60;91.68;99061.27;672391;1264;138613;-74
2023/03/25 01:29:49;;;;;;;51.50;31.60;;;;;;;11.49;91.73;99055.14;679178;1262;139364;-75
2023/03/25 01:44:52;;;;;;;10.80;8.10;;;;;;;11.40;91.92;99039.61;677107;1265;139229;-74
2023/03/25 01:59:56;;;;;;;33.90;23.10;;;;;;;11.31;91.80;99029.13;673115;1262;141254;-74
2023/03/25 02:15:03;;;;;;;12.70;8.10;;;;;;;11.19;91.32;99033.36;675658;1263;140020;-74
2023/03/25 02:30:21;;;;;;;14.30;9.00;;;;;;;11.10;92.17;99018.92;679355;1266;139237;-74
2023/03/25 02:45:36;;;;;;;;;;;;;;;11.07;92.96;99016.67;678454;1264;140563;-75
2023/03/25 03:00:39;;;;;;;23.20;10.80;;;;;;;10.99;92.46;99035.99;673127;1263;126182;-74
2023/03/25 03:16:00;;;;;;;16.50;10.10;;;;;;;10.96;92.76;99032.46;679053;1264;140039;-74
2023/03/25 03:31:16;;;;;;;21.80;11.00;;;;;;;10.87;93.02;99029.27;679117;1264;140450;-74
2023/03/25 03:47:00;;;;;;;18.80;10.80;;;;;;;10.70;93.89;99032.62;679406;1263;140670;-74
2023/03/25 04:02:13;;;;;;;18.80;10.90;;;;;;;10.66;94.48;99023.76;674645;1263;138990;-74
2023/03/25 04:17:17;;;;;;;27.90;18.60;;;;;;;10.74;93.43;99014.51;680273;1263;140328;-73
2023/03/25 04:32:20;;;;;;;24.60;15.50;;;;;;;10.72;94.09;99009.46;677884;1266;139365;-74
2023/03/25 04:47:26;;;;;;;42.90;29.50;;;;;;;10.55;96.08;99027.45;677693;1263;142035;-74
2023/03/25 05:02:29;;;;;;;33.20;19.70;;;;;;;10.49;97.31;99045.88;679182;1265;139689;-74
2023/03/25 05:17:33;;;;;;;37.10;21.60;;;;;;;10.56;98.17;99056.17;680204;1260;139810;-74
2023/03/25 05:32:36;;;;;;;39.10;22.80;;;;;;;10.69;99.26;99057.77;677368;1264;140233;-74
2023/03/25 05:47:39;;;;;;;47.10;28.50;;;;;;;10.68;100.00;99076.38;680484;1266;139926;-75
2023/03/25 06:02:42;;;;;;;45.10;27.20;;;;;;;10.90;99.95;99076.84;676468;1265;140101;-75
2023/03/25 06:17:46;;;;;;;50.50;29.40;;;;;;;11.07;99.73;99074.29;680004;1264;138904;-73
2023/03/25 06:32:51;;;;;;;46.20;24.60;;;;;;;11.29;99.39;99085.88;674383;1266;140183;-74
2023/03/25 06:47:54;;;;;;;42.30;24.60;;;;;;;11.36;99.92;99084.44;673835;1266;140157;-74
2023/03/25 07:02:57;;;;;;;41.30;23.30;;;;;;;11.97;99.42;99084.52;677939;1263;139681;-74
2023/03/25 07:18:01;;;;;;;43.40;24.20;;;;;;;12.21;97.45;99092.70;677416;1265;139365;-74
2023/03/25 07:33:04;;;;;;;29.20;18.50;;;;;;;12.35;96.59;99103.02;673780;1264;140622;-75
2023/03/25 07:48:13;;;;;;;130.40;66.20;;;;;;;12.77;95.34;99098.73;675609;1273;139761;-75
2023/03/25 08:03:16;;;;;;;;;;;;;;;14.20;91.48;99091.62;674037;1272;141166;-74
2023/03/25 08:18:19;;;;;;;24.70;13.60;;;;;;;14.12;88.70;99083.20;675058;1266;125466;-75
2023/03/25 08:33:38;;;;;;;22.20;13.30;;;;;;;14.51;88.12;99080.55;671836;1264;139405;-75
2023/03/25 08:48:42;;;;;;;19.10;11.60;;;;;;;14.36;85.19;99073.48;671599;1265;139134;-76
2023/03/25 09:03:45;;;;;;;20.70;13.10;;;;;;;14.64;84.88;99066.55;671955;1273;140533;-76
2023/03/25 09:18:49;;;;;;;20.10;11.30;;;;;;;14.79;83.92;99076.05;669978;1274;140639;-75
2023/03/25 09:33:52;;;;;;;18.00;10.70;;;;;;;14.60;83.96;99068.91;668822;1264;140268;-75
2023/03/25 09:48:56;;;;;;;14.20;9.50;;;;;;;14.66;82.68;99049.02;673180;1263;139474;-78
2023/03/25 10:04:37;;;;;;;17.50;9.20;;;;;;;14.74;81.65;99048.89;671478;1264;139580;-76
2023/03/25 10:20:00;;;;;;;15.30;8.10;;;;;;;14.79;80.60;99044.63;672052;1261;138806;-75
2023/03/25 10:35:06;;;;;;;11.90;6.80;;;;;;;14.81;79.72;99038.84;676779;1260;139147;-77
2023/03/25 10:50:19;;;;;;;16.90;9.30;;;;;;;14.71;80.55;99036.39;674174;1263;138792;-77
2023/03/25 11:05:26;;;;;;;14.20;8.30;;;;;;;14.62;81.73;99037.61;675267;1259;139784;-76
2023/03/25 11:20:37;;;;;;;16.80;10.40;;;;;;;14.30;84.38;99031.10;675767;1261;140171;-75
2023/03/25 11:35:43;;;;;;;12.80;9.70;;;;;;;14.37;87.69;99011.31;675626;1263;140036;-76
2023/03/25 11:51:06;;;;;;;25.10;14.40;;;;;;;15.66;86.62;98987.59;673763;1263;139271;-77
2023/03/25 12:35:20;;;;;;;13.10;9.20;;;;;;;15.33;87.50;98938.50;656761;1308;545109;-77
2023/03/25 12:50:32;;;;;;;12.60;9.40;;;;;;;15.47;84.32;98922.16;670457;1280;139651;-78
2023/03/25 13:05:58;;;;;;;10.50;7.70;;;;;;;15.90;80.91;98907.98;668616;1273;138245;-76
2023/03/25 13:21:37;;;;;;;16.90;10.40;;;;;;;15.86;80.38;98917.54;666107;1273;138855;-77
2023/03/25 13:36:48;;;;;;;12.10;7.40;;;;;;;16.21;79.95;98906.31;669494;1273;138401;-80
2023/03/25 13:51:52;;;;;;;11.00;7.10;;;;;;;16.46;78.46;98897.26;666619;1272;138415;-80
2023/03/25 14:07:22;;;;;;;26.10;14.60;;;;;;;18.14;72.46;98890.77;667993;1269;139173;-81
2023/03/25 14:22:30;;;;;;;14.50;7.80;;;;;;;23.72;56.68;98862.84;667257;1273;138870;-82
2023/03/25 14:37:34;;;;;;;9.10;5.40;;;;;;;18.31;58.90;98861.86;667875;1272;138255;-81
2023/03/25 14:52:47;;;;;;;7.30;5.70;;;;;;;16.66;62.99;98853.54;666188;1269;137734;-81
2023/03/25 15:07:57;;;;;;;139.90;72.00;;;;;;;15.98;66.64;98857.17;665562;1269;137087;-81
2023/03/25 15:23:38;;;;;;;40.40;30.40;;;;;;;15.11;73.24;98890.57;666105;1271;139420;-78
2023/03/25 15:38:50;;;;;;;8.10;4.00;;;;;;;13.98;78.66;98897.60;667429;1273;139910;-76
2023/03/25 15:54:20;;;;;;;11.90;7.50;;;;;;;14.58;77.91;98901.46;666414;1273;138447;-77
2023/03/25 16:09:26;;;;;;;30.00;12.40;;;;;;;14.02;78.07;98905.14;670011;1275;138947;-78
2023/03/25 16:24:32;;;;;;;12.40;6.90;;;;;;;13.56;80.29;98908.89;672186;1274;139148;-77
2023/03/25 16:39:36;;;;;;;13.00;8.20;;;;;;;13.36;82.72;98914.84;673875;1259;139677;-79
2023/03/25 16:54:51;;;;;;;20.50;11.30;;;;;;;13.29;83.11;98926.27;672348;1264;138690;-78
2023/03/25 17:09:57;;;;;;;11.10;5.60;;;;;;;12.90;84.03;98930.73;669170;1263;140225;-78
2023/03/25 17:25:17;;;;;;;12.10;5.70;;;;;;;12.66;84.33;98923.06;672510;1262;140403;-78
2023/03/25 17:40:24;;;;;;;10.60;5.20;;;;;;;12.70;85.38;98925.74;675978;1262;138979;-80
2023/03/25 17:55:27;;;;;;;13.60;7.50;;;;;;;12.70;85.51;98926.04;677434;1262;138877;-80
2023/03/25 18:10:32;;;;;;;19.20;11.10;;;;;;;12.48;85.93;98940.51;674270;1262;139069;-78
2023/03/25 18:25:37;;;;;;;25.20;11.10;;;;;;;12.25;85.18;98945.86;673286;1275;138701;-79
2023/03/25 18:40:46;;;;;;;36.00;19.30;;;;;;;12.10;85.80;98946.36;673569;1258;139802;-79
2023/03/25 18:55:50;;;;;;;25.50;14.30;;;;;;;12.00;86.75;98944.02;669177;1262;140051;-80
2023/03/25 19:10:53;;;;;;;28.30;15.60;;;;;;;11.89;87.02;98928.05;671472;1262;139083;-80
2023/03/25 19:26:11;;;;;;;25.60;11.90;;;;;;;11.72;87.63;98926.90;673644;1263;140007;-79
2023/03/25 19:41:15;;;;;;;25.90;14.70;;;;;;;11.56;88.52;98923.59;674427;1261;139696;-79
2023/03/25 19:56:18;;;;;;;31.00;15.90;;;;;;;11.42;88.73;98915.02;674469;1262;139775;-80
2023/03/25 20:11:22;;;;;;;29.80;13.50;;;;;;;11.28;88.32;98896.08;675404;1262;140509;-80
2023/03/25 20:26:26;;;;;;;18.40;9.40;;;;;;;11.14;88.49;98895.00;675975;1262;139615;-80
2023/03/25 20:41:30;;;;;;;34.20;21.70;;;;;;;10.98;88.82;98905.62;675672;1263;140220;-80
2023/03/25 20:56:33;;;;;;;19.20;10.90;;;;;;;10.86;88.30;98915.31;673213;1262;139552;-79
2023/03/25 21:11:37;;;;;;;15.00;8.10;;;;;;;10.70;88.32;98922.52;674531;1259;139987;-80
2023/03/25 21:26:40;;;;;;;15.20;10.40;;;;;;;10.69;87.57;98925.77;673533;1262;138636;-79
2023/03/25 21:41:43;;;;;;;12.80;7.80;;;;;;;10.69;87.52;98928.73;675000;1263;138294;-80
2023/03/25 21:56:50;;;;;;;11.50;7.20;;;;;;;10.80;87.68;98924.33;673048;1262;139673;-79
2023/03/25 22:11:55;;;;;;;13.40;8.80;;;;;;;10.85;88.10;98926.96;670951;1263;139882;-80
2023/03/25 22:26:58;;;;;;;10.20;6.40;;;;;;;10.84;87.99;98931.13;671640;1262;139322;-79
2023/03/25 22:42:02;;;;;;;12.40;7.50;;;;;;;10.81;88.15;98919.01;672520;1262;139507;-80
2023/03/25 22:57:05;;;;;;;13.70;7.50;;;;;;;10.77;88.40;98909.20;676685;1262;139671;-79
2023/03/25 23:12:13;;;;;;;13.70;7.00;;;;;;;10.82;88.15;98904.56;673340;1273;139365;-79
2023/03/25 23:27:16;;;;;;;11.90;7.70;;;;;;;10.84;88.06;98901.02;678373;1262;139873;-79
2023/03/25 23:42:20;;;;;;;10.40;5.80;;;;;;;10.85;88.56;98897.22;673628;1262;139796;-79
2023/03/25 23:57:23;;;;;;;8.80;5.30;;;;;;;10.84;88.80;98892.73;675625;1263;139621;-79
